sensor_id;sensor_type;location;lat;lon;timestamp;temperature;humidity
37998;DHT22;24079;51.824;4.682;2023-03-01T00:01:23;2.30;99.90
37998;DHT22;24079;51.824;4.682;2023-03-01T00:03:50;2.20;99.90
37998;DHT22;24079;51.824;4.682;2023-03-01T00:06:16;2.20;99.90
37998;DHT22;24079;51.824;4.682;2023-03-01T00:08:42;2.30;99.90
37998;DHT22;24079;51.824;4.682;2023-03-01T00:11:14;2.20;99.90
37998;DHT22;24079;51.824;4.682;2023-03-01T00:13:40;2.30;99.90
37998;DHT22;24079;51.824;4.682;2023-03-01T00:16:08;2.20;99.90
37998;DHT22;24079;51.824;4.682;2023-03-01T00:18:34;2.20;99.90
37998;DHT22;24079;51.824;4.682;2023-03-01T00:21:00;2.10;99.90
37998;DHT22;24079;51.824;4.682;2023-03-01T00:23:26;2.10;99.90
37998;DHT22;24079;51.824;4.682;2023-03-01T00:25:52;2.10;99.90
37998;DHT22;24079;51.824;4.682;2023-03-01T00:28:19;2.00;99.90
37998;DHT22;24079;51.824;4.682;2023-03-01T00:30:45;2.00;99.90
37998;DHT22;24079;51.824;4.682;2023-03-01T00:33:11;1.90;99.90
37998;DHT22;24079;51.824;4.682;2023-03-01T00:35:37;1.90;99.90
37998;DHT22;24079;51.824;4.682;2023-03-01T00:38:03;2.00;99.90
37998;DHT22;24079;51.824;4.682;2023-03-01T00:40:30;2.00;99.90
37998;DHT22;24079;51.824;4.682;2023-03-01T00:42:56;1.90;99.90
37998;DHT22;24079;51.824;4.682;2023-03-01T00:45:22;1.90;99.90
37998;DHT22;24079;51.824;4.682;2023-03-01T00:47:51;1.90;99.90
37998;DHT22;24079;51.824;4.682;2023-03-01T00:50:17;1.90;99.90
37998;DHT22;24079;51.824;4.682;2023-03-01T00:52:43;1.90;99.90
37998;DHT22;24079;51.824;4.682;2023-03-01T00:55:09;2.00;99.90
37998;DHT22;24079;51.824;4.682;2023-03-01T00:57:35;1.90;99.90
37998;DHT22;24079;51.824;4.682;2023-03-01T01:00:01;1.90;99.90
37998;DHT22;24079;51.824;4.682;2023-03-01T01:02:27;1.90;99.90
37998;DHT22;24079;51.824;4.682;2023-03-01T01:04:52;1.90;99.90
37998;DHT22;24079;51.824;4.682;2023-03-01T01:07:18;1.90;99.90
37998;DHT22;24079;51.824;4.682;2023-03-01T01:09:46;1.90;99.90
37998;DHT22;24079;51.824;4.682;2023-03-01T01:12:11;1.90;99.90
37998;DHT22;24079;51.824;4.682;2023-03-01T01:14:37;1.90;99.90
37998;DHT22;24079;51.824;4.682;2023-03-01T01:17:03;1.90;99.90
37998;DHT22;24079;51.824;4.682;2023-03-01T01:19:29;1.90;99.90
37998;DHT22;24079;51.824;4.682;2023-03-01T01:21:55;1.90;99.90
37998;DHT22;24079;51.824;4.682;2023-03-01T01:24:21;1.80;99.90
37998;DHT22;24079;51.824;4.682;2023-03-01T01:26:46;1.90;99.90
37998;DHT22;24079;51.824;4.682;2023-03-01T01:29:12;1.80;99.90
37998;DHT22;24079;51.824;4.682;2023-03-01T01:31:40;1.90;99.90
37998;DHT22;24079;51.824;4.682;2023-03-01T01:34:08;1.80;99.90
37998;DHT22;24079;51.824;4.682;2023-03-01T01:36:34;1.90;99.90
37998;DHT22;24079;51.824;4.682;2023-03-01T01:39:01;1.80;99.90
37998;DHT22;24079;51.824;4.682;2023-03-01T01:41:28;1.80;99.90
37998;DHT22;24079;51.824;4.682;2023-03-01T01:46:49;1.70;99.90
37998;DHT22;24079;51.824;4.682;2023-03-01T01:49:58;1.80;99.90
37998;DHT22;24079;51.824;4.682;2023-03-01T01:52:22;1.80;99.90
37998;DHT22;24079;51.824;4.682;2023-03-01T01:57:27;1.80;99.90
37998;DHT22;24079;51.824;4.682;2023-03-01T01:59:57;1.80;99.90
37998;DHT22;24079;51.824;4.682;2023-03-01T02:02:25;1.80;99.90
37998;DHT22;24079;51.824;4.682;2023-03-01T02:05:03;1.80;99.90
37998;DHT22;24079;51.824;4.682;2023-03-01T02:07:38;1.80;99.90
37998;DHT22;24079;51.824;4.682;2023-03-01T02:10:05;1.90;99.90
37998;DHT22;24079;51.824;4.682;2023-03-01T02:12:31;1.90;99.90
37998;DHT22;24079;51.824;4.682;2023-03-01T02:14:57;1.90;99.90
37998;DHT22;24079;51.824;4.682;2023-03-01T02:17:23;1.80;99.90
37998;DHT22;24079;51.824;4.682;2023-03-01T02:22:30;1.90;99.90
37998;DHT22;24079;51.824;4.682;2023-03-01T02:30:47;1.80;99.90
37998;DHT22;24079;51.824;4.682;2023-03-01T02:33:34;1.80;99.90
37998;DHT22;24079;51.824;4.682;2023-03-01T02:36:05;1.80;99.90
37998;DHT22;24079;51.824;4.682;2023-03-01T02:38:32;1.80;99.90
37998;DHT22;24079;51.824;4.682;2023-03-01T02:40:58;1.80;99.90
37998;DHT22;24079;51.824;4.682;2023-03-01T02:43:29;1.80;99.90
37998;DHT22;24079;51.824;4.682;2023-03-01T02:45:59;1.80;99.90
37998;DHT22;24079;51.824;4.682;2023-03-01T02:48:27;1.80;99.90
37998;DHT22;24079;51.824;4.682;2023-03-01T02:51:05;1.80;99.90
37998;DHT22;24079;51.824;4.682;2023-03-01T02:56:50;1.70;99.90
37998;DHT22;24079;51.824;4.682;2023-03-01T02:59:21;1.60;99.90
37998;DHT22;24079;51.824;4.682;2023-03-01T03:01:48;1.60;99.90
37998;DHT22;24079;51.824;4.682;2023-03-01T03:04:15;1.60;99.90
37998;DHT22;24079;51.824;4.682;2023-03-01T03:06:46;1.50;99.90
37998;DHT22;24079;51.824;4.682;2023-03-01T03:09:13;1.40;99.90
37998;DHT22;24079;51.824;4.682;2023-03-01T03:11:39;1.50;99.90
37998;DHT22;24079;51.824;4.682;2023-03-01T03:14:10;1.40;99.90
37998;DHT22;24079;51.824;4.682;2023-03-01T03:16:49;1.40;99.90
37998;DHT22;24079;51.824;4.682;2023-03-01T03:19:16;1.40;99.90
37998;DHT22;24079;51.824;4.682;2023-03-01T03:21:42;1.40;99.90
37998;DHT22;24079;51.824;4.682;2023-03-01T03:24:08;1.30;99.90
37998;DHT22;24079;51.824;4.682;2023-03-01T03:26:34;1.30;99.90
37998;DHT22;24079;51.824;4.682;2023-03-01T03:29:00;1.30;99.90
37998;DHT22;24079;51.824;4.682;2023-03-01T03:31:27;1.30;99.90
37998;DHT22;24079;51.824;4.682;2023-03-01T03:33:53;1.30;99.90
37998;DHT22;24079;51.824;4.682;2023-03-01T03:36:22;1.20;99.90
37998;DHT22;24079;51.824;4.682;2023-03-01T03:38:48;1.30;99.90
37998;DHT22;24079;51.824;4.682;2023-03-01T03:41:14;1.30;99.90
37998;DHT22;24079;51.824;4.682;2023-03-01T03:43:41;1.30;99.90
37998;DHT22;24079;51.824;4.682;2023-03-01T03:46:08;1.30;99.90
37998;DHT22;24079;51.824;4.682;2023-03-01T03:48:42;1.30;99.90
37998;DHT22;24079;51.824;4.682;2023-03-01T03:51:13;1.30;99.90
37998;DHT22;24079;51.824;4.682;2023-03-01T03:53:40;1.30;99.90
37998;DHT22;24079;51.824;4.682;2023-03-01T03:56:06;1.20;99.90
37998;DHT22;24079;51.824;4.682;2023-03-01T03:58:32;1.20;99.90
37998;DHT22;24079;51.824;4.682;2023-03-01T04:00:58;1.20;99.90
37998;DHT22;24079;51.824;4.682;2023-03-01T04:03:25;1.20;99.90
37998;DHT22;24079;51.824;4.682;2023-03-01T04:05:51;1.20;99.90
37998;DHT22;24079;51.824;4.682;2023-03-01T04:08:19;1.20;99.90
37998;DHT22;24079;51.824;4.682;2023-03-01T04:10:48;1.20;99.90
37998;DHT22;24079;51.824;4.682;2023-03-01T04:13:17;1.20;99.90
37998;DHT22;24079;51.824;4.682;2023-03-01T04:15:45;1.10;99.90
37998;DHT22;24079;51.824;4.682;2023-03-01T04:18:13;1.10;99.90
37998;DHT22;24079;51.824;4.682;2023-03-01T04:20:39;1.10;99.90
37998;DHT22;24079;51.824;4.682;2023-03-01T04:23:10;1.10;99.90
37998;DHT22;24079;51.824;4.682;2023-03-01T04:25:57;1.10;99.90
37998;DHT22;24079;51.824;4.682;2023-03-01T04:28:29;1.20;99.90
37998;DHT22;24079;51.824;4.682;2023-03-01T04:30:56;1.10;99.90
37998;DHT22;24079;51.824;4.682;2023-03-01T04:33:22;1.10;99.90
37998;DHT22;24079;51.824;4.682;2023-03-01T04:35:48;1.10;99.90
37998;DHT22;24079;51.824;4.682;2023-03-01T04:38:20;1.10;99.90
37998;DHT22;24079;51.824;4.682;2023-03-01T04:40:46;1.10;99.90
37998;DHT22;24079;51.824;4.682;2023-03-01T04:43:12;1.00;99.90
37998;DHT22;24079;51.824;4.682;2023-03-01T04:45:42;1.00;99.90
37998;DHT22;24079;51.824;4.682;2023-03-01T04:48:08;1.00;99.90
37998;DHT22;24079;51.824;4.682;2023-03-01T04:50:33;1.00;99.90
37998;DHT22;24079;51.824;4.682;2023-03-01T04:53:00;1.00;99.90
37998;DHT22;24079;51.824;4.682;2023-03-01T04:55:26;1.00;99.90
37998;DHT22;24079;51.824;4.682;2023-03-01T04:57:52;1.00;99.90
37998;DHT22;24079;51.824;4.682;2023-03-01T05:00:19;1.00;99.90
37998;DHT22;24079;51.824;4.682;2023-03-01T05:02:52;0.90;99.90
37998;DHT22;24079;51.824;4.682;2023-03-01T05:05:26;0.90;99.90
37998;DHT22;24079;51.824;4.682;2023-03-01T05:07:54;0.90;99.90
37998;DHT22;24079;51.824;4.682;2023-03-01T05:10:21;0.80;99.90
37998;DHT22;24079;51.824;4.682;2023-03-01T05:12:48;0.90;99.90
37998;DHT22;24079;51.824;4.682;2023-03-01T05:15:13;0.90;99.90
37998;DHT22;24079;51.824;4.682;2023-03-01T05:17:39;0.80;99.90
37998;DHT22;24079;51.824;4.682;2023-03-01T05:20:05;0.80;99.90
37998;DHT22;24079;51.824;4.682;2023-03-01T05:22:35;0.80;99.90
37998;DHT22;24079;51.824;4.682;2023-03-01T05:25:01;0.80;99.90
37998;DHT22;24079;51.824;4.682;2023-03-01T05:27:27;0.80;99.90
37998;DHT22;24079;51.824;4.682;2023-03-01T05:29:53;0.80;99.90
37998;DHT22;24079;51.824;4.682;2023-03-01T05:32:19;0.70;99.90
37998;DHT22;24079;51.824;4.682;2023-03-01T05:34:45;0.70;99.90
37998;DHT22;24079;51.824;4.682;2023-03-01T05:37:12;0.70;99.90
37998;DHT22;24079;51.824;4.682;2023-03-01T05:39:38;0.80;99.90
37998;DHT22;24079;51.824;4.682;2023-03-01T05:42:04;0.80;99.90
37998;DHT22;24079;51.824;4.682;2023-03-01T05:44:30;0.70;99.90
37998;DHT22;24079;51.824;4.682;2023-03-01T05:46:56;0.70;99.90
37998;DHT22;24079;51.824;4.682;2023-03-01T05:49:22;0.70;99.90
37998;DHT22;24079;51.824;4.682;2023-03-01T05:51:51;0.70;99.90
37998;DHT22;24079;51.824;4.682;2023-03-01T05:54:17;0.70;99.90
37998;DHT22;24079;51.824;4.682;2023-03-01T05:56:44;0.70;99.90
37998;DHT22;24079;51.824;4.682;2023-03-01T05:59:10;0.60;99.90
37998;DHT22;24079;51.824;4.682;2023-03-01T06:01:36;0.60;99.90
37998;DHT22;24079;51.824;4.682;2023-03-01T06:04:03;0.60;99.90
37998;DHT22;24079;51.824;4.682;2023-03-01T06:06:29;0.60;99.90
37998;DHT22;24079;51.824;4.682;2023-03-01T06:08:58;0.70;99.90
37998;DHT22;24079;51.824;4.682;2023-03-01T06:11:24;0.70;99.90
37998;DHT22;24079;51.824;4.682;2023-03-01T06:13:50;0.70;99.90
37998;DHT22;24079;51.824;4.682;2023-03-01T06:16:15;0.70;99.90
37998;DHT22;24079;51.824;4.682;2023-03-01T06:18:41;0.80;99.90
37998;DHT22;24079;51.824;4.682;2023-03-01T06:21:08;0.70;99.90
37998;DHT22;24079;51.824;4.682;2023-03-01T06:23:33;0.70;99.90
37998;DHT22;24079;51.824;4.682;2023-03-01T06:25:59;0.70;99.90
37998;DHT22;24079;51.824;4.682;2023-03-01T06:28:25;0.70;99.90
37998;DHT22;24079;51.824;4.682;2023-03-01T06:30:51;0.70;99.90
37998;DHT22;24079;51.824;4.682;2023-03-01T06:33:18;0.70;99.90
37998;DHT22;24079;51.824;4.682;2023-03-01T06:35:46;0.70;99.90
37998;DHT22;24079;51.824;4.682;2023-03-01T06:38:12;0.70;99.90
37998;DHT22;24079;51.824;4.682;2023-03-01T06:40:40;0.80;99.90
37998;DHT22;24079;51.824;4.682;2023-03-01T06:43:06;0.70;99.90
37998;DHT22;24079;51.824;4.682;2023-03-01T06:45:33;0.80;99.90
37998;DHT22;24079;51.824;4.682;2023-03-01T06:48:06;0.80;99.90
37998;DHT22;24079;51.824;4.682;2023-03-01T06:50:32;0.80;99.90
37998;DHT22;24079;51.824;4.682;2023-03-01T06:52:58;0.80;99.90
37998;DHT22;24079;51.824;4.682;2023-03-01T06:55:23;0.80;99.90
37998;DHT22;24079;51.824;4.682;2023-03-01T06:57:54;0.80;99.90
37998;DHT22;24079;51.824;4.682;2023-03-01T07:00:21;0.80;99.90
37998;DHT22;24079;51.824;4.682;2023-03-01T07:02:46;0.80;99.90
37998;DHT22;24079;51.824;4.682;2023-03-01T07:05:12;0.80;99.90
37998;DHT22;24079;51.824;4.682;2023-03-01T07:07:38;0.80;99.90
37998;DHT22;24079;51.824;4.682;2023-03-01T07:10:05;0.80;99.90
37998;DHT22;24079;51.824;4.682;2023-03-01T07:12:32;0.80;99.90
37998;DHT22;24079;51.824;4.682;2023-03-01T07:14:58;0.80;99.90
37998;DHT22;24079;51.824;4.682;2023-03-01T07:17:24;0.80;99.90
37998;DHT22;24079;51.824;4.682;2023-03-01T07:19:50;0.90;99.90
37998;DHT22;24079;51.824;4.682;2023-03-01T07:22:16;0.90;99.90
37998;DHT22;24079;51.824;4.682;2023-03-01T07:24:43;1.00;99.90
37998;DHT22;24079;51.824;4.682;2023-03-01T07:27:09;1.00;99.90
37998;DHT22;24079;51.824;4.682;2023-03-01T07:29:35;1.00;99.90
37998;DHT22;24079;51.824;4.682;2023-03-01T07:32:05;1.00;99.90
37998;DHT22;24079;51.824;4.682;2023-03-01T07:34:31;1.00;99.90
37998;DHT22;24079;51.824;4.682;2023-03-01T07:36:58;1.10;99.90
37998;DHT22;24079;51.824;4.682;2023-03-01T07:39:24;1.10;99.90
37998;DHT22;24079;51.824;4.682;2023-03-01T07:41:50;1.30;99.90
37998;DHT22;24079;51.824;4.682;2023-03-01T07:44:16;1.40;99.90
37998;DHT22;24079;51.824;4.682;2023-03-01T07:46:43;1.60;99.90
37998;DHT22;24079;51.824;4.682;2023-03-01T07:49:10;1.60;99.90
37998;DHT22;24079;51.824;4.682;2023-03-01T07:51:36;1.70;99.90
37998;DHT22;24079;51.824;4.682;2023-03-01T07:54:02;1.80;99.90
37998;DHT22;24079;51.824;4.682;2023-03-01T07:56:28;1.80;99.90
37998;DHT22;24079;51.824;4.682;2023-03-01T07:58:54;1.90;99.90
37998;DHT22;24079;51.824;4.682;2023-03-01T08:01:21;1.90;99.90
37998;DHT22;24079;51.824;4.682;2023-03-01T08:03:47;1.90;99.90
37998;DHT22;24079;51.824;4.682;2023-03-01T08:06:14;2.00;99.90
37998;DHT22;24079;51.824;4.682;2023-03-01T08:08:41;2.10;99.90
37998;DHT22;24079;51.824;4.682;2023-03-01T08:11:08;2.20;99.90
37998;DHT22;24079;51.824;4.682;2023-03-01T08:13:35;2.50;99.90
37998;DHT22;24079;51.824;4.682;2023-03-01T08:16:06;2.70;99.90
37998;DHT22;24079;51.824;4.682;2023-03-01T08:18:32;3.00;99.90
37998;DHT22;24079;51.824;4.682;2023-03-01T08:21:06;3.40;99.90
37998;DHT22;24079;51.824;4.682;2023-03-01T08:23:32;3.80;99.90
37998;DHT22;24079;51.824;4.682;2023-03-01T08:28:37;4.30;99.90
37998;DHT22;24079;51.824;4.682;2023-03-01T08:31:04;4.60;99.90
37998;DHT22;24079;51.824;4.682;2023-03-01T08:33:37;4.80;99.90
37998;DHT22;24079;51.824;4.682;2023-03-01T08:36:05;4.80;99.90
37998;DHT22;24079;51.824;4.682;2023-03-01T08:38:32;4.80;99.90
37998;DHT22;24079;51.824;4.682;2023-03-01T08:41:02;4.80;99.90
37998;DHT22;24079;51.824;4.682;2023-03-01T08:43:28;4.80;99.90
37998;DHT22;24079;51.824;4.682;2023-03-01T08:45:54;4.90;99.90
37998;DHT22;24079;51.824;4.682;2023-03-01T08:48:20;5.00;99.90
37998;DHT22;24079;51.824;4.682;2023-03-01T08:50:46;5.10;99.90
37998;DHT22;24079;51.824;4.682;2023-03-01T08:53:12;5.00;99.90
37998;DHT22;24079;51.824;4.682;2023-03-01T08:55:37;4.90;99.90
37998;DHT22;24079;51.824;4.682;2023-03-01T08:58:03;5.00;99.90
37998;DHT22;24079;51.824;4.682;2023-03-01T09:00:28;5.10;99.90
37998;DHT22;24079;51.824;4.682;2023-03-01T09:02:54;5.30;99.90
37998;DHT22;24079;51.824;4.682;2023-03-01T09:05:20;5.40;99.90
37998;DHT22;24079;51.824;4.682;2023-03-01T09:07:45;5.30;99.90
37998;DHT22;24079;51.824;4.682;2023-03-01T09:10:11;5.50;99.90
37998;DHT22;24079;51.824;4.682;2023-03-01T09:12:37;5.50;99.90
37998;DHT22;24079;51.824;4.682;2023-03-01T09:15:02;5.60;99.90
37998;DHT22;24079;51.824;4.682;2023-03-01T09:17:28;5.70;99.90
37998;DHT22;24079;51.824;4.682;2023-03-01T09:19:54;5.40;99.90
37998;DHT22;24079;51.824;4.682;2023-03-01T09:22:19;5.30;99.90
37998;DHT22;24079;51.824;4.682;2023-03-01T09:24:45;5.40;99.90
37998;DHT22;24079;51.824;4.682;2023-03-01T09:27:11;5.60;99.90
37998;DHT22;24079;51.824;4.682;2023-03-01T09:29:38;5.70;99.90
37998;DHT22;24079;51.824;4.682;2023-03-01T09:32:03;5.80;99.90
37998;DHT22;24079;51.824;4.682;2023-03-01T09:34:29;5.90;99.90
37998;DHT22;24079;51.824;4.682;2023-03-01T09:36:57;6.00;99.90
37998;DHT22;24079;51.824;4.682;2023-03-01T09:39:23;6.10;99.90
37998;DHT22;24079;51.824;4.682;2023-03-01T09:42:00;6.20;99.90
37998;DHT22;24079;51.824;4.682;2023-03-01T09:44:52;6.40;99.90
37998;DHT22;24079;51.824;4.682;2023-03-01T09:47:22;6.30;99.90
37998;DHT22;24079;51.824;4.682;2023-03-01T09:50:03;6.40;99.90
37998;DHT22;24079;51.824;4.682;2023-03-01T09:52:41;6.40;99.90
37998;DHT22;24079;51.824;4.682;2023-03-01T09:55:13;6.60;99.90
37998;DHT22;24079;51.824;4.682;2023-03-01T10:00:39;6.60;99.90
37998;DHT22;24079;51.824;4.682;2023-03-01T10:03:16;6.70;99.90
37998;DHT22;24079;51.824;4.682;2023-03-01T10:10:54;6.80;99.90
37998;DHT22;24079;51.824;4.682;2023-03-01T10:13:29;6.80;99.90
37998;DHT22;24079;51.824;4.682;2023-03-01T10:16:02;6.90;99.90
37998;DHT22;24079;51.824;4.682;2023-03-01T10:18:31;6.80;99.90
37998;DHT22;24079;51.824;4.682;2023-03-01T10:21:05;6.90;99.90
37998;DHT22;24079;51.824;4.682;2023-03-01T10:23:35;6.90;99.90
37998;DHT22;24079;51.824;4.682;2023-03-01T10:29:07;7.00;99.90
37998;DHT22;24079;51.824;4.682;2023-03-01T10:31:43;6.90;99.90
37998;DHT22;24079;51.824;4.682;2023-03-01T10:36:47;7.10;99.90
37998;DHT22;24079;51.824;4.682;2023-03-01T10:39:18;7.10;99.90
37998;DHT22;24079;51.824;4.682;2023-03-01T10:44:43;7.10;99.90
37998;DHT22;24079;51.824;4.682;2023-03-01T10:47:26;7.10;99.90
37998;DHT22;24079;51.824;4.682;2023-03-01T10:50:04;7.10;99.90
37998;DHT22;24079;51.824;4.682;2023-03-01T10:55:00;7.00;99.90
37998;DHT22;24079;51.824;4.682;2023-03-01T10:57:33;7.00;99.90
37998;DHT22;24079;51.824;4.682;2023-03-01T11:00:25;7.00;99.90
37998;DHT22;24079;51.824;4.682;2023-03-01T11:03:04;6.90;99.90
37998;DHT22;24079;51.824;4.682;2023-03-01T11:05:35;7.00;99.90
37998;DHT22;24079;51.824;4.682;2023-03-01T11:08:02;7.00;99.90
37998;DHT22;24079;51.824;4.682;2023-03-01T11:13:12;7.00;99.90
37998;DHT22;24079;51.824;4.682;2023-03-01T11:15:39;7.00;99.90
37998;DHT22;24079;51.824;4.682;2023-03-01T11:18:21;6.90;99.90
37998;DHT22;24079;51.824;4.682;2023-03-01T11:20:48;6.90;99.90
37998;DHT22;24079;51.824;4.682;2023-03-01T11:23:17;7.10;99.90
37998;DHT22;24079;51.824;4.682;2023-03-01T11:25:47;7.20;99.90
37998;DHT22;24079;51.824;4.682;2023-03-01T11:28:17;7.10;99.90
37998;DHT22;24079;51.824;4.682;2023-03-01T11:30:56;7.00;99.90
37998;DHT22;24079;51.824;4.682;2023-03-01T11:36:44;6.90;99.90
37998;DHT22;24079;51.824;4.682;2023-03-01T11:39:27;7.10;99.90
37998;DHT22;24079;51.824;4.682;2023-03-01T11:42:18;7.00;99.90
37998;DHT22;24079;51.824;4.682;2023-03-01T11:44:48;7.20;99.90
37998;DHT22;24079;51.824;4.682;2023-03-01T11:50:10;7.00;99.90
37998;DHT22;24079;51.824;4.682;2023-03-01T11:55:46;7.00;99.90
37998;DHT22;24079;51.824;4.682;2023-03-01T12:22:31;7.30;99.90
37998;DHT22;24079;51.824;4.682;2023-03-01T12:25:16;7.30;99.90
37998;DHT22;24079;51.824;4.682;2023-03-01T12:39:11;7.50;99.90
37998;DHT22;24079;51.824;4.682;2023-03-01T12:41:46;7.50;99.90
37998;DHT22;24079;51.824;4.682;2023-03-01T12:50:47;7.40;99.90
37998;DHT22;24079;51.824;4.682;2023-03-01T12:53:31;7.50;99.90
37998;DHT22;24079;51.824;4.682;2023-03-01T12:56:11;7.70;99.90
37998;DHT22;24079;51.824;4.682;2023-03-01T13:09:30;7.50;99.90
37998;DHT22;24079;51.824;4.682;2023-03-01T13:11:59;7.50;99.90
37998;DHT22;24079;51.824;4.682;2023-03-01T13:16:54;7.50;99.90
37998;DHT22;24079;51.824;4.682;2023-03-01T13:19:25;7.50;99.90
37998;DHT22;24079;51.824;4.682;2023-03-01T13:21:53;7.60;99.90
37998;DHT22;24079;51.824;4.682;2023-03-01T13:32:25;7.70;99.90
37998;DHT22;24079;51.824;4.682;2023-03-01T13:34:55;7.80;99.90
37998;DHT22;24079;51.824;4.682;2023-03-01T13:37:33;7.80;99.90
37998;DHT22;24079;51.824;4.682;2023-03-01T13:40:03;7.90;99.90
37998;DHT22;24079;51.824;4.682;2023-03-01T13:45:32;8.00;99.90
37998;DHT22;24079;51.824;4.682;2023-03-01T13:48:01;8.00;99.90
37998;DHT22;24079;51.824;4.682;2023-03-01T13:50:29;8.10;99.90
37998;DHT22;24079;51.824;4.682;2023-03-01T13:53:00;8.10;99.90
37998;DHT22;24079;51.824;4.682;2023-03-01T13:55:45;8.10;99.90
37998;DHT22;24079;51.824;4.682;2023-03-01T13:58:24;8.00;99.90
37998;DHT22;24079;51.824;4.682;2023-03-01T14:01:02;8.00;99.90
37998;DHT22;24079;51.824;4.682;2023-03-01T14:03:31;8.00;99.90
37998;DHT22;24079;51.824;4.682;2023-03-01T14:08:29;8.00;99.90
37998;DHT22;24079;51.824;4.682;2023-03-01T14:19:27;8.00;99.90
37998;DHT22;24079;51.824;4.682;2023-03-01T14:24:51;8.00;99.90
37998;DHT22;24079;51.824;4.682;2023-03-01T14:27:18;8.00;99.90
37998;DHT22;24079;51.824;4.682;2023-03-01T14:29:55;7.90;99.90
37998;DHT22;24079;51.824;4.682;2023-03-01T14:32:25;7.80;99.90
37998;DHT22;24079;51.824;4.682;2023-03-01T14:34:52;7.80;99.90
37998;DHT22;24079;51.824;4.682;2023-03-01T14:37:28;7.80;99.90
37998;DHT22;24079;51.824;4.682;2023-03-01T14:39:55;7.90;99.90
37998;DHT22;24079;51.824;4.682;2023-03-01T14:42:23;7.90;99.90
37998;DHT22;24079;51.824;4.682;2023-03-01T14:44:52;8.00;99.90
37998;DHT22;24079;51.824;4.682;2023-03-01T14:47:38;8.00;99.90
37998;DHT22;24079;51.824;4.682;2023-03-01T14:50:09;8.00;99.90
37998;DHT22;24079;51.824;4.682;2023-03-01T14:52:38;7.90;99.90
37998;DHT22;24079;51.824;4.682;2023-03-01T14:55:07;7.90;99.90
37998;DHT22;24079;51.824;4.682;2023-03-01T14:57:43;8.00;99.90
37998;DHT22;24079;51.824;4.682;2023-03-01T15:00:20;8.00;99.90
37998;DHT22;24079;51.824;4.682;2023-03-01T15:02:48;7.90;99.90
37998;DHT22;24079;51.824;4.682;2023-03-01T15:05:17;7.90;99.90
37998;DHT22;24079;51.824;4.682;2023-03-01T15:07:44;7.90;99.90
37998;DHT22;24079;51.824;4.682;2023-03-01T15:10:22;7.90;99.90
37998;DHT22;24079;51.824;4.682;2023-03-01T15:12:49;7.90;99.90
37998;DHT22;24079;51.824;4.682;2023-03-01T15:15:30;7.90;99.90
37998;DHT22;24079;51.824;4.682;2023-03-01T15:17:57;7.90;99.90
37998;DHT22;24079;51.824;4.682;2023-03-01T15:20:26;7.80;99.90
37998;DHT22;24079;51.824;4.682;2023-03-01T15:22:56;7.80;99.90
37998;DHT22;24079;51.824;4.682;2023-03-01T15:25:25;7.80;99.90
37998;DHT22;24079;51.824;4.682;2023-03-01T15:27:52;7.80;99.90
37998;DHT22;24079;51.824;4.682;2023-03-01T15:30:36;7.80;99.90
37998;DHT22;24079;51.824;4.682;2023-03-01T15:35:49;7.70;99.90
37998;DHT22;24079;51.824;4.682;2023-03-01T15:41:03;7.70;99.90
37998;DHT22;24079;51.824;4.682;2023-03-01T15:43:44;7.70;99.90
37998;DHT22;24079;51.824;4.682;2023-03-01T15:46:22;7.70;99.90
37998;DHT22;24079;51.824;4.682;2023-03-01T15:48:52;7.80;99.90
37998;DHT22;24079;51.824;4.682;2023-03-01T15:51:26;7.80;99.90
37998;DHT22;24079;51.824;4.682;2023-03-01T15:53:53;7.90;99.90
37998;DHT22;24079;51.824;4.682;2023-03-01T15:56:19;7.80;99.90
37998;DHT22;24079;51.824;4.682;2023-03-01T15:58:44;7.80;99.90
37998;DHT22;24079;51.824;4.682;2023-03-01T16:01:14;7.80;99.90
37998;DHT22;24079;51.824;4.682;2023-03-01T16:03:42;7.70;99.90
37998;DHT22;24079;51.824;4.682;2023-03-01T16:06:12;7.70;99.90
37998;DHT22;24079;51.824;4.682;2023-03-01T16:08:38;7.60;99.90
37998;DHT22;24079;51.824;4.682;2023-03-01T16:11:16;7.70;99.90
37998;DHT22;24079;51.824;4.682;2023-03-01T16:13:42;7.80;99.90
37998;DHT22;24079;51.824;4.682;2023-03-01T16:16:10;7.90;99.90
37998;DHT22;24079;51.824;4.682;2023-03-01T16:18:40;8.00;99.90
37998;DHT22;24079;51.824;4.682;2023-03-01T16:21:06;8.30;99.90
37998;DHT22;24079;51.824;4.682;2023-03-01T16:23:32;8.10;99.90
37998;DHT22;24079;51.824;4.682;2023-03-01T16:26:01;8.20;99.90
37998;DHT22;24079;51.824;4.682;2023-03-01T16:28:26;8.10;99.90
37998;DHT22;24079;51.824;4.682;2023-03-01T16:30:52;8.00;99.90
37998;DHT22;24079;51.824;4.682;2023-03-01T16:33:18;8.10;99.90
37998;DHT22;24079;51.824;4.682;2023-03-01T16:35:43;8.00;99.90
37998;DHT22;24079;51.824;4.682;2023-03-01T16:38:10;8.00;99.90
37998;DHT22;24079;51.824;4.682;2023-03-01T16:40:35;8.00;99.90
37998;DHT22;24079;51.824;4.682;2023-03-01T16:43:02;7.90;99.90
37998;DHT22;24079;51.824;4.682;2023-03-01T16:45:33;8.00;99.90
37998;DHT22;24079;51.824;4.682;2023-03-01T16:48:02;8.10;99.90
37998;DHT22;24079;51.824;4.682;2023-03-01T16:50:28;8.00;99.90
37998;DHT22;24079;51.824;4.682;2023-03-01T16:52:54;8.00;99.90
37998;DHT22;24079;51.824;4.682;2023-03-01T16:55:19;7.80;99.90
37998;DHT22;24079;51.824;4.682;2023-03-01T16:57:45;7.70;99.90
37998;DHT22;24079;51.824;4.682;2023-03-01T17:00:12;7.70;99.90
37998;DHT22;24079;51.824;4.682;2023-03-01T17:02:39;7.60;99.90
37998;DHT22;24079;51.824;4.682;2023-03-01T17:05:07;7.60;99.90
37998;DHT22;24079;51.824;4.682;2023-03-01T17:07:33;7.40;99.90
37998;DHT22;24079;51.824;4.682;2023-03-01T17:10:00;7.40;99.90
37998;DHT22;24079;51.824;4.682;2023-03-01T17:12:26;7.30;99.90
37998;DHT22;24079;51.824;4.682;2023-03-01T17:14:52;7.30;99.90
37998;DHT22;24079;51.824;4.682;2023-03-01T17:17:18;7.10;99.90
37998;DHT22;24079;51.824;4.682;2023-03-01T17:19:44;7.10;99.90
37998;DHT22;24079;51.824;4.682;2023-03-01T17:22:10;7.00;99.90
37998;DHT22;24079;51.824;4.682;2023-03-01T17:24:39;7.10;99.90
37998;DHT22;24079;51.824;4.682;2023-03-01T17:27:06;6.90;99.90
37998;DHT22;24079;51.824;4.682;2023-03-01T17:29:32;6.80;99.90
37998;DHT22;24079;51.824;4.682;2023-03-01T17:31:58;6.70;99.90
37998;DHT22;24079;51.824;4.682;2023-03-01T17:34:24;6.60;99.90
37998;DHT22;24079;51.824;4.682;2023-03-01T17:36:50;6.60;99.90
37998;DHT22;24079;51.824;4.682;2023-03-01T17:39:17;6.50;99.90
37998;DHT22;24079;51.824;4.682;2023-03-01T17:41:45;6.40;99.90
37998;DHT22;24079;51.824;4.682;2023-03-01T17:44:11;6.40;99.90
37998;DHT22;24079;51.824;4.682;2023-03-01T17:46:37;6.40;99.90
37998;DHT22;24079;51.824;4.682;2023-03-01T17:49:02;6.40;99.90
37998;DHT22;24079;51.824;4.682;2023-03-01T17:51:28;6.40;99.90
37998;DHT22;24079;51.824;4.682;2023-03-01T17:53:53;6.50;99.90
37998;DHT22;24079;51.824;4.682;2023-03-01T17:56:19;6.50;99.90
37998;DHT22;24079;51.824;4.682;2023-03-01T17:58:45;6.40;99.90
37998;DHT22;24079;51.824;4.682;2023-03-01T18:01:17;6.30;99.90
37998;DHT22;24079;51.824;4.682;2023-03-01T18:03:44;6.30;99.90
37998;DHT22;24079;51.824;4.682;2023-03-01T18:06:19;6.20;99.90
37998;DHT22;24079;51.824;4.682;2023-03-01T18:08:46;6.20;99.90
37998;DHT22;24079;51.824;4.682;2023-03-01T18:11:14;6.20;99.90